sensor_id;sensor_type;location;lat;lon;timestamp;P1;durP1;ratioP1;P2;durP2;ratioP2
36593;SDS011;22603;47.900;8.146;2023-02-18T00:01:16;0.50;;;0.50;;
36593;SDS011;22603;47.900;8.146;2023-02-18T00:04:05;0.80;;;0.60;;
36593;SDS011;22603;47.900;8.146;2023-02-18T00:06:52;1.03;;;0.60;;
36593;SDS011;22603;47.900;8.146;2023-02-18T00:09:38;1.00;;;0.60;;
36593;SDS011;22603;47.900;8.146;2023-02-18T00:12:25;0.73;;;0.60;;
36593;SDS011;22603;47.900;8.146;2023-02-18T00:15:13;0.50;;;0.50;;
36593;SDS011;22603;47.900;8.146;2023-02-18T00:18:00;0.57;;;0.57;;
36593;SDS011;22603;47.900;8.146;2023-02-18T00:20:47;0.43;;;0.40;;
36593;SDS011;22603;47.900;8.146;2023-02-18T00:23:33;0.80;;;0.50;;
36593;SDS011;22603;47.900;8.146;2023-02-18T00:26:21;1.40;;;0.60;;
36593;SDS011;22603;47.900;8.146;2023-02-18T00:29:08;0.50;;;0.50;;
36593;SDS011;22603;47.900;8.146;2023-02-18T00:31:56;0.83;;;0.50;;
36593;SDS011;22603;47.900;8.146;2023-02-18T00:34:43;0.63;;;0.43;;
36593;SDS011;22603;47.900;8.146;2023-02-18T00:37:30;0.47;;;0.47;;
36593;SDS011;22603;47.900;8.146;2023-02-18T00:40:19;1.23;;;0.50;;
36593;SDS011;22603;47.900;8.146;2023-02-18T00:43:06;0.43;;;0.43;;
36593;SDS011;22603;47.900;8.146;2023-02-18T00:45:53;1.37;;;0.60;;
36593;SDS011;22603;47.900;8.146;2023-02-18T00:48:42;1.10;;;0.70;;
36593;SDS011;22603;47.900;8.146;2023-02-18T00:51:29;1.90;;;0.70;;
36593;SDS011;22603;47.900;8.146;2023-02-18T00:54:16;0.53;;;0.40;;
36593;SDS011;22603;47.900;8.146;2023-02-18T00:57:03;0.33;;;0.33;;
36593;SDS011;22603;47.900;8.146;2023-02-18T00:59:50;1.07;;;0.53;;
36593;SDS011;22603;47.900;8.146;2023-02-18T01:02:36;1.03;;;0.40;;
36593;SDS011;22603;47.900;8.146;2023-02-18T01:05:25;0.87;;;0.43;;
36593;SDS011;22603;47.900;8.146;2023-02-18T01:08:12;0.40;;;0.40;;
36593;SDS011;22603;47.900;8.146;2023-02-18T01:10:59;1.07;;;0.50;;
36593;SDS011;22603;47.900;8.146;2023-02-18T01:13:47;1.17;;;0.60;;
36593;SDS011;22603;47.900;8.146;2023-02-18T01:16:34;0.80;;;0.43;;
36593;SDS011;22603;47.900;8.146;2023-02-18T01:19:21;0.47;;;0.30;;
36593;SDS011;22603;47.900;8.146;2023-02-18T01:22:09;0.43;;;0.43;;
36593;SDS011;22603;47.900;8.146;2023-02-18T01:24:56;0.87;;;0.37;;
36593;SDS011;22603;47.900;8.146;2023-02-18T01:27:42;0.30;;;0.30;;
36593;SDS011;22603;47.900;8.146;2023-02-18T01:30:30;0.30;;;0.30;;
36593;SDS011;22603;47.900;8.146;2023-02-18T01:33:17;0.40;;;0.40;;
36593;SDS011;22603;47.900;8.146;2023-02-18T01:36:04;0.50;;;0.50;;
36593;SDS011;22603;47.900;8.146;2023-02-18T01:38:53;0.30;;;0.30;;
36593;SDS011;22603;47.900;8.146;2023-02-18T01:41:40;1.50;;;0.60;;
36593;SDS011;22603;47.900;8.146;2023-02-18T01:44:27;0.50;;;0.30;;
36593;SDS011;22603;47.900;8.146;2023-02-18T01:47:15;0.60;;;0.40;;
36593;SDS011;22603;47.900;8.146;2023-02-18T01:50:04;0.63;;;0.50;;
36593;SDS011;22603;47.900;8.146;2023-02-18T01:52:52;0.30;;;0.30;;
36593;SDS011;22603;47.900;8.146;2023-02-18T01:55:40;0.57;;;0.40;;
36593;SDS011;22603;47.900;8.146;2023-02-18T01:58:27;0.37;;;0.30;;
36593;SDS011;22603;47.900;8.146;2023-02-18T02:01:14;0.50;;;0.50;;
36593;SDS011;22603;47.900;8.146;2023-02-18T02:04:01;0.77;;;0.40;;
36593;SDS011;22603;47.900;8.146;2023-02-18T02:06:48;0.70;;;0.50;;
36593;SDS011;22603;47.900;8.146;2023-02-18T02:09:35;0.87;;;0.50;;
36593;SDS011;22603;47.900;8.146;2023-02-18T02:12:31;0.60;;;0.50;;
36593;SDS011;22603;47.900;8.146;2023-02-18T02:15:31;0.63;;;0.50;;
36593;SDS011;22603;47.900;8.146;2023-02-18T02:18:28;2.10;;;0.40;;
36593;SDS011;22603;47.900;8.146;2023-02-18T02:25:01;0.50;;;0.50;;
36593;SDS011;22603;47.900;8.146;2023-02-18T02:28:05;0.50;;;0.50;;
36593;SDS011;22603;47.900;8.146;2023-02-18T02:31:22;1.43;;;0.57;;
36593;SDS011;22603;47.900;8.146;2023-02-18T02:34:41;1.90;;;0.53;;
36593;SDS011;22603;47.900;8.146;2023-02-18T02:37:33;1.33;;;0.50;;
36593;SDS011;22603;47.900;8.146;2023-02-18T02:40:28;0.90;;;0.60;;
36593;SDS011;22603;47.900;8.146;2023-02-18T02:43:20;0.40;;;0.40;;
36593;SDS011;22603;47.900;8.146;2023-02-18T02:46:15;0.63;;;0.50;;
36593;SDS011;22603;47.900;8.146;2023-02-18T02:49:08;1.10;;;0.50;;
36593;SDS011;22603;47.900;8.146;2023-02-18T02:52:06;0.67;;;0.50;;
36593;SDS011;22603;47.900;8.146;2023-02-18T02:54:58;0.70;;;0.53;;
36593;SDS011;22603;47.900;8.146;2023-02-18T02:57:47;1.20;;;0.73;;
36593;SDS011;22603;47.900;8.146;2023-02-18T03:00:37;0.70;;;0.60;;
36593;SDS011;22603;47.900;8.146;2023-02-18T03:03:44;1.27;;;0.70;;
36593;SDS011;22603;47.900;8.146;2023-02-18T03:06:56;2.20;;;0.70;;
36593;SDS011;22603;47.900;8.146;2023-02-18T03:10:12;1.57;;;0.70;;
36593;SDS011;22603;47.900;8.146;2023-02-18T03:13:13;3.13;;;0.50;;
36593;SDS011;22603;47.900;8.146;2023-02-18T03:16:10;1.87;;;1.03;;
36593;SDS011;22603;47.900;8.146;2023-02-18T03:19:07;1.30;;;0.67;;
36593;SDS011;22603;47.900;8.146;2023-02-18T03:21:59;1.17;;;0.87;;
36593;SDS011;22603;47.900;8.146;2023-02-18T03:24:49;1.33;;;0.80;;
36593;SDS011;22603;47.900;8.146;2023-02-18T03:27:40;0.80;;;0.60;;
36593;SDS011;22603;47.900;8.146;2023-02-18T03:30:32;1.27;;;0.80;;
36593;SDS011;22603;47.900;8.146;2023-02-18T03:33:25;2.10;;;0.70;;
36593;SDS011;22603;47.900;8.146;2023-02-18T03:36:16;0.93;;;0.50;;
36593;SDS011;22603;47.900;8.146;2023-02-18T03:39:06;2.53;;;0.93;;
36593;SDS011;22603;47.900;8.146;2023-02-18T03:41:57;1.43;;;0.67;;
36593;SDS011;22603;47.900;8.146;2023-02-18T03:44:45;1.07;;;0.60;;
36593;SDS011;22603;47.900;8.146;2023-02-18T03:47:32;1.33;;;0.70;;
36593;SDS011;22603;47.900;8.146;2023-02-18T03:50:19;1.00;;;0.77;;
36593;SDS011;22603;47.900;8.146;2023-02-18T03:53:06;2.30;;;1.00;;
36593;SDS011;22603;47.900;8.146;2023-02-18T03:55:53;2.60;;;1.00;;
36593;SDS011;22603;47.900;8.146;2023-02-18T03:58:41;1.70;;;0.80;;
36593;SDS011;22603;47.900;8.146;2023-02-18T04:01:29;3.97;;;1.30;;
36593;SDS011;22603;47.900;8.146;2023-02-18T04:04:16;1.50;;;0.80;;
36593;SDS011;22603;47.900;8.146;2023-02-18T04:07:03;2.33;;;0.90;;
36593;SDS011;22603;47.900;8.146;2023-02-18T04:09:50;2.13;;;0.90;;
36593;SDS011;22603;47.900;8.146;2023-02-18T04:12:37;2.43;;;0.90;;
36593;SDS011;22603;47.900;8.146;2023-02-18T04:15:24;1.63;;;0.70;;
36593;SDS011;22603;47.900;8.146;2023-02-18T04:18:12;1.37;;;0.80;;
36593;SDS011;22603;47.900;8.146;2023-02-18T04:21:00;2.60;;;1.00;;
36593;SDS011;22603;47.900;8.146;2023-02-18T04:23:47;3.30;;;1.10;;
36593;SDS011;22603;47.900;8.146;2023-02-18T04:26:34;1.93;;;0.80;;
36593;SDS011;22603;47.900;8.146;2023-02-18T04:29:20;1.60;;;0.77;;
36593;SDS011;22603;47.900;8.146;2023-02-18T04:32:07;3.40;;;1.20;;
36593;SDS011;22603;47.900;8.146;2023-02-18T04:34:55;1.60;;;0.80;;
36593;SDS011;22603;47.900;8.146;2023-02-18T04:37:42;1.97;;;0.80;;
36593;SDS011;22603;47.900;8.146;2023-02-18T04:40:29;1.90;;;0.90;;
36593;SDS011;22603;47.900;8.146;2023-02-18T04:43:16;1.90;;;0.90;;
36593;SDS011;22603;47.900;8.146;2023-02-18T04:46:03;0.97;;;0.70;;
36593;SDS011;22603;47.900;8.146;2023-02-18T04:48:52;1.33;;;0.60;;
36593;SDS011;22603;47.900;8.146;2023-02-18T04:51:41;1.77;;;0.73;;
36593;SDS011;22603;47.900;8.146;2023-02-18T04:54:28;1.10;;;0.80;;
36593;SDS011;22603;47.900;8.146;2023-02-18T04:57:15;1.57;;;0.70;;
36593;SDS011;22603;47.900;8.146;2023-02-18T05:00:02;0.87;;;0.67;;
36593;SDS011;22603;47.900;8.146;2023-02-18T05:02:50;1.33;;;0.50;;
36593;SDS011;22603;47.900;8.146;2023-02-18T05:05:37;0.50;;;0.50;;
36593;SDS011;22603;47.900;8.146;2023-02-18T05:08:27;3.47;;;0.80;;
36593;SDS011;22603;47.900;8.146;2023-02-18T05:11:14;0.93;;;0.63;;
36593;SDS011;22603;47.900;8.146;2023-02-18T05:14:01;2.10;;;0.70;;
36593;SDS011;22603;47.900;8.146;2023-02-18T05:16:48;0.70;;;0.60;;
36593;SDS011;22603;47.900;8.146;2023-02-18T05:19:35;0.97;;;0.50;;
36593;SDS011;22603;47.900;8.146;2023-02-18T05:22:22;0.60;;;0.60;;
36593;SDS011;22603;47.900;8.146;2023-02-18T05:25:10;1.03;;;0.50;;
36593;SDS011;22603;47.900;8.146;2023-02-18T05:27:57;2.10;;;0.80;;
36593;SDS011;22603;47.900;8.146;2023-02-18T05:30:44;0.70;;;0.50;;
36593;SDS011;22603;47.900;8.146;2023-02-18T05:33:31;0.40;;;0.40;;
36593;SDS011;22603;47.900;8.146;2023-02-18T05:36:19;1.53;;;0.60;;
36593;SDS011;22603;47.900;8.146;2023-02-18T05:39:06;0.93;;;0.50;;
36593;SDS011;22603;47.900;8.146;2023-02-18T05:41:56;0.93;;;0.43;;
36593;SDS011;22603;47.900;8.146;2023-02-18T05:44:43;0.30;;;0.30;;
36593;SDS011;22603;47.900;8.146;2023-02-18T05:47:30;0.40;;;0.40;;
36593;SDS011;22603;47.900;8.146;2023-02-18T05:50:17;0.33;;;0.33;;
36593;SDS011;22603;47.900;8.146;2023-02-18T05:53:04;1.10;;;0.60;;
36593;SDS011;22603;47.900;8.146;2023-02-18T05:55:51;0.73;;;0.47;;
36593;SDS011;22603;47.900;8.146;2023-02-18T05:58:39;0.50;;;0.50;;
36593;SDS011;22603;47.900;8.146;2023-02-18T06:01:27;0.50;;;0.50;;
36593;SDS011;22603;47.900;8.146;2023-02-18T06:04:14;0.37;;;0.30;;
36593;SDS011;22603;47.900;8.146;2023-02-18T06:07:01;0.30;;;0.30;;
36593;SDS011;22603;47.900;8.146;2023-02-18T06:09:48;0.40;;;0.40;;
36593;SDS011;22603;47.900;8.146;2023-02-18T06:12:35;0.53;;;0.37;;
36593;SDS011;22603;47.900;8.146;2023-02-18T06:15:24;0.53;;;0.40;;
36593;SDS011;22603;47.900;8.146;2023-02-18T06:18:11;0.50;;;0.37;;
36593;SDS011;22603;47.900;8.146;2023-02-18T06:20:58;0.50;;;0.50;;
36593;SDS011;22603;47.900;8.146;2023-02-18T06:23:45;0.60;;;0.40;;
36593;SDS011;22603;47.900;8.146;2023-02-18T06:26:32;0.70;;;0.60;;
36593;SDS011;22603;47.900;8.146;2023-02-18T06:29:19;0.93;;;0.60;;
36593;SDS011;22603;47.900;8.146;2023-02-18T06:32:08;1.10;;;0.50;;
36593;SDS011;22603;47.900;8.146;2023-02-18T06:34:55;0.87;;;0.50;;
36593;SDS011;22603;47.900;8.146;2023-02-18T06:37:42;0.70;;;0.60;;
36593;SDS011;22603;47.900;8.146;2023-02-18T06:40:30;1.00;;;0.57;;
36593;SDS011;22603;47.900;8.146;2023-02-18T06:43:17;1.93;;;0.60;;
36593;SDS011;22603;47.900;8.146;2023-02-18T06:46:04;0.67;;;0.60;;
36593;SDS011;22603;47.900;8.146;2023-02-18T06:48:54;1.23;;;0.50;;
36593;SDS011;22603;47.900;8.146;2023-02-18T06:51:41;1.23;;;0.50;;
36593;SDS011;22603;47.900;8.146;2023-02-18T06:54:29;2.13;;;0.60;;
36593;SDS011;22603;47.900;8.146;2023-02-18T06:57:20;1.77;;;0.77;;
36593;SDS011;22603;47.900;8.146;2023-02-18T07:00:08;1.97;;;0.77;;
36593;SDS011;22603;47.900;8.146;2023-02-18T07:02:56;0.63;;;0.50;;
36593;SDS011;22603;47.900;8.146;2023-02-18T07:05:46;1.37;;;0.63;;
36593;SDS011;22603;47.900;8.146;2023-02-18T07:08:34;0.67;;;0.50;;
36593;SDS011;22603;47.900;8.146;2023-02-18T07:11:23;2.73;;;0.70;;
36593;SDS011;22603;47.900;8.146;2023-02-18T07:14:10;1.63;;;0.87;;
36593;SDS011;22603;47.900;8.146;2023-02-18T07:16:58;0.87;;;0.50;;
36593;SDS011;22603;47.900;8.146;2023-02-18T07:19:45;1.37;;;0.80;;
36593;SDS011;22603;47.900;8.146;2023-02-18T07:22:35;1.60;;;0.70;;
36593;SDS011;22603;47.900;8.146;2023-02-18T07:25:22;1.53;;;0.80;;
36593;SDS011;22603;47.900;8.146;2023-02-18T07:28:10;1.97;;;0.70;;
36593;SDS011;22603;47.900;8.146;2023-02-18T07:30:57;2.30;;;0.80;;
36593;SDS011;22603;47.900;8.146;2023-02-18T07:33:44;0.93;;;0.60;;
36593;SDS011;22603;47.900;8.146;2023-02-18T07:36:31;1.47;;;0.80;;
36593;SDS011;22603;47.900;8.146;2023-02-18T07:39:19;1.00;;;0.77;;
36593;SDS011;22603;47.900;8.146;2023-02-18T07:42:06;1.37;;;0.70;;
36593;SDS011;22603;47.900;8.146;2023-02-18T07:44:54;2.70;;;1.27;;
36593;SDS011;22603;47.900;8.146;2023-02-18T07:47:41;1.53;;;0.80;;
36593;SDS011;22603;47.900;8.146;2023-02-18T07:50:29;1.60;;;0.60;;
36593;SDS011;22603;47.900;8.146;2023-02-18T07:53:19;1.30;;;0.60;;
36593;SDS011;22603;47.900;8.146;2023-02-18T07:56:07;1.30;;;0.70;;
36593;SDS011;22603;47.900;8.146;2023-02-18T07:58:55;0.90;;;0.67;;
36593;SDS011;22603;47.900;8.146;2023-02-18T08:01:42;1.67;;;0.60;;
36593;SDS011;22603;47.900;8.146;2023-02-18T08:04:29;0.67;;;0.60;;
36593;SDS011;22603;47.900;8.146;2023-02-18T08:07:17;1.80;;;0.67;;
36593;SDS011;22603;47.900;8.146;2023-02-18T08:10:06;0.73;;;0.57;;
36593;SDS011;22603;47.900;8.146;2023-02-18T08:12:55;1.30;;;0.50;;
36593;SDS011;22603;47.900;8.146;2023-02-18T08:15:42;1.30;;;0.70;;
36593;SDS011;22603;47.900;8.146;2023-02-18T08:18:29;1.87;;;0.73;;
36593;SDS011;22603;47.900;8.146;2023-02-18T08:21:16;0.70;;;0.60;;
36593;SDS011;22603;47.900;8.146;2023-02-18T08:24:04;0.60;;;0.50;;
36593;SDS011;22603;47.900;8.146;2023-02-18T08:26:52;0.53;;;0.53;;
36593;SDS011;22603;47.900;8.146;2023-02-18T08:29:46;0.40;;;0.40;;
36593;SDS011;22603;47.900;8.146;2023-02-18T08:32:33;1.37;;;0.60;;
36593;SDS011;22603;47.900;8.146;2023-02-18T08:35:21;0.60;;;0.57;;
36593;SDS011;22603;47.900;8.146;2023-02-18T08:38:08;0.87;;;0.50;;
36593;SDS011;22603;47.900;8.146;2023-02-18T08:41:00;1.77;;;0.83;;
36593;SDS011;22603;47.900;8.146;2023-02-18T08:43:48;0.93;;;0.50;;
36593;SDS011;22603;47.900;8.146;2023-02-18T08:46:36;1.33;;;0.63;;
36593;SDS011;22603;47.900;8.146;2023-02-18T08:49:23;1.03;;;0.60;;
36593;SDS011;22603;47.900;8.146;2023-02-18T08:52:11;0.60;;;0.60;;
36593;SDS011;22603;47.900;8.146;2023-02-18T08:54:58;0.90;;;0.50;;
36593;SDS011;22603;47.900;8.146;2023-02-18T08:57:45;1.20;;;0.70;;
36593;SDS011;22603;47.900;8.146;2023-02-18T09:00:32;0.87;;;0.60;;
36593;SDS011;22603;47.900;8.146;2023-02-18T09:03:21;0.50;;;0.50;;
36593;SDS011;22603;47.900;8.146;2023-02-18T09:06:09;2.27;;;0.60;;
36593;SDS011;22603;47.900;8.146;2023-02-18T09:08:56;2.47;;;0.50;;
36593;SDS011;22603;47.900;8.146;2023-02-18T09:11:43;1.90;;;0.60;;
36593;SDS011;22603;47.900;8.146;2023-02-18T09:14:30;0.43;;;0.40;;
36593;SDS011;22603;47.900;8.146;2023-02-18T09:17:17;0.87;;;0.60;;
36593;SDS011;22603;47.900;8.146;2023-02-18T09:20:06;1.03;;;0.67;;
36593;SDS011;22603;47.900;8.146;2023-02-18T09:22:54;0.43;;;0.43;;
36593;SDS011;22603;47.900;8.146;2023-02-18T09:25:42;1.47;;;0.50;;
36593;SDS011;22603;47.900;8.146;2023-02-18T09:28:28;1.80;;;0.50;;
36593;SDS011;22603;47.900;8.146;2023-02-18T09:31:16;1.17;;;0.60;;
36593;SDS011;22603;47.900;8.146;2023-02-18T09:34:05;1.80;;;0.70;;
36593;SDS011;22603;47.900;8.146;2023-02-18T09:36:54;0.63;;;0.50;;
36593;SDS011;22603;47.900;8.146;2023-02-18T09:39:41;2.00;;;0.63;;
36593;SDS011;22603;47.900;8.146;2023-02-18T09:42:29;0.60;;;0.60;;
36593;SDS011;22603;47.900;8.146;2023-02-18T09:45:18;3.00;;;0.67;;
36593;SDS011;22603;47.900;8.146;2023-02-18T09:48:07;1.13;;;0.70;;
36593;SDS011;22603;47.900;8.146;2023-02-18T09:50:55;0.77;;;0.60;;
36593;SDS011;22603;47.900;8.146;2023-02-18T09:53:43;0.90;;;0.67;;
36593;SDS011;22603;47.900;8.146;2023-02-18T09:56:32;1.20;;;0.85;;
36593;SDS011;22603;47.900;8.146;2023-02-18T09:59:23;1.17;;;0.60;;
36593;SDS011;22603;47.900;8.146;2023-02-18T10:02:12;1.73;;;0.70;;
36593;SDS011;22603;47.900;8.146;2023-02-18T10:05:01;1.20;;;0.60;;
36593;SDS011;22603;47.900;8.146;2023-02-18T10:07:50;1.33;;;0.77;;
36593;SDS011;22603;47.900;8.146;2023-02-18T10:10:42;0.80;;;0.60;;
36593;SDS011;22603;47.900;8.146;2023-02-18T10:13:31;0.50;;;0.50;;
36593;SDS011;22603;47.900;8.146;2023-02-18T10:16:19;0.53;;;0.40;;
36593;SDS011;22603;47.900;8.146;2023-02-18T10:19:12;1.13;;;0.60;;
36593;SDS011;22603;47.900;8.146;2023-02-18T10:22:07;1.10;;;0.70;;
36593;SDS011;22603;47.900;8.146;2023-02-18T10:24:59;1.37;;;0.70;;
36593;SDS011;22603;47.900;8.146;2023-02-18T10:27:51;1.37;;;0.70;;
36593;SDS011;22603;47.900;8.146;2023-02-18T10:30:39;0.73;;;0.60;;
36593;SDS011;22603;47.900;8.146;2023-02-18T10:33:32;1.20;;;0.80;;
36593;SDS011;22603;47.900;8.146;2023-02-18T10:36:22;1.03;;;0.73;;
36593;SDS011;22603;47.900;8.146;2023-02-18T10:39:20;0.97;;;0.50;;
36593;SDS011;22603;47.900;8.146;2023-02-18T10:42:20;1.27;;;0.60;;
36593;SDS011;22603;47.900;8.146;2023-02-18T10:45:22;5.50;;;0.90;;
36593;SDS011;22603;47.900;8.146;2023-02-18T10:48:28;0.83;;;0.40;;
36593;SDS011;22603;47.900;8.146;2023-02-18T10:51:30;0.60;;;0.40;;
36593;SDS011;22603;47.900;8.146;2023-02-18T10:54:22;1.00;;;0.70;;
36593;SDS011;22603;47.900;8.146;2023-02-18T10:57:12;1.33;;;0.53;;
36593;SDS011;22603;47.900;8.146;2023-02-18T11:00:05;0.77;;;0.50;;
36593;SDS011;22603;47.900;8.146;2023-02-18T11:03:12;0.50;;;0.50;;
36593;SDS011;22603;47.900;8.146;2023-02-18T11:06:01;2.60;;;0.70;;
36593;SDS011;22603;47.900;8.146;2023-02-18T11:08:48;2.43;;;0.60;;
36593;SDS011;22603;47.900;8.146;2023-02-18T11:11:37;0.47;;;0.47;;
36593;SDS011;22603;47.900;8.146;2023-02-18T11:14:34;0.70;;;0.60;;
36593;SDS011;22603;47.900;8.146;2023-02-18T11:17:25;1.30;;;0.63;;
36593;SDS011;22603;47.900;8.146;2023-02-18T11:20:27;0.77;;;0.60;;
36593;SDS011;22603;47.900;8.146;2023-02-18T11:23:18;1.10;;;0.70;;
36593;SDS011;22603;47.900;8.146;2023-02-18T11:26:06;0.80;;;0.60;;
36593;SDS011;22603;47.900;8.146;2023-02-18T11:28:59;1.90;;;0.90;;
36593;SDS011;22603;47.900;8.146;2023-02-18T11:31:49;0.67;;;0.40;;
36593;SDS011;22603;47.900;8.146;2023-02-18T11:34:40;1.60;;;0.70;;
36593;SDS011;22603;47.900;8.146;2023-02-18T11:37:31;0.70;;;0.70;;
36593;SDS011;22603;47.900;8.146;2023-02-18T11:40:21;1.23;;;0.50;;
36593;SDS011;22603;47.900;8.146;2023-02-18T11:43:10;3.63;;;0.77;;
36593;SDS011;22603;47.900;8.146;2023-02-18T11:46:09;1.27;;;0.47;;
36593;SDS011;22603;47.900;8.146;2023-02-18T11:49:10;2.17;;;0.70;;
36593;SDS011;22603;47.900;8.146;2023-02-18T11:52:13;2.37;;;0.80;;
36593;SDS011;22603;47.900;8.146;2023-02-18T11:55:05;0.73;;;0.57;;
36593;SDS011;22603;47.900;8.146;2023-02-18T11:58:00;2.47;;;0.60;;
36593;SDS011;22603;47.900;8.146;2023-02-18T12:00:49;1.63;;;0.80;;
36593;SDS011;22603;47.900;8.146;2023-02-18T12:03:40;2.77;;;0.90;;
36593;SDS011;22603;47.900;8.146;2023-02-18T12:06:32;5.57;;;1.13;;
36593;SDS011;22603;47.900;8.146;2023-02-18T12:09:26;0.77;;;0.60;;
36593;SDS011;22603;47.900;8.146;2023-02-18T12:12:18;1.40;;;0.70;;
36593;SDS011;22603;47.900;8.146;2023-02-18T12:15:13;0.50;;;0.50;;
36593;SDS011;22603;47.900;8.146;2023-02-18T12:18:10;0.80;;;0.70;;
36593;SDS011;22603;47.900;8.146;2023-02-18T12:21:21;1.40;;;0.80;;
36593;SDS011;22603;47.900;8.146;2023-02-18T12:24:23;2.17;;;0.67;;
36593;SDS011;22603;47.900;8.146;2023-02-18T12:27:33;1.60;;;0.70;;
36593;SDS011;22603;47.900;8.146;2023-02-18T12:30:33;1.47;;;0.70;;
36593;SDS011;22603;47.900;8.146;2023-02-18T12:33:30;1.83;;;1.00;;
36593;SDS011;22603;47.900;8.146;2023-02-18T12:36:30;1.60;;;0.80;;
36593;SDS011;22603;47.900;8.146;2023-02-18T12:39:31;1.03;;;0.67;;
36593;SDS011;22603;47.900;8.146;2023-02-18T12:42:29;1.80;;;0.70;;
36593;SDS011;22603;47.900;8.146;2023-02-18T12:45:34;1.23;;;0.80;;
36593;SDS011;22603;47.900;8.146;2023-02-18T12:48:44;0.53;;;0.50;;
36593;SDS011;22603;47.900;8.146;2023-02-18T12:51:53;1.53;;;0.73;;
36593;SDS011;22603;47.900;8.146;2023-02-18T12:58:24;0.90;;;0.70;;
36593;SDS011;22603;47.900;8.146;2023-02-18T13:01:36;1.73;;;0.60;;
36593;SDS011;22603;47.900;8.146;2023-02-18T13:04:40;0.53;;;0.50;;
36593;SDS011;22603;47.900;8.146;2023-02-18T13:10:50;2.43;;;0.77;;
36593;SDS011;22603;47.900;8.146;2023-02-18T13:13:49;1.37;;;0.80;;
36593;SDS011;22603;47.900;8.146;2023-02-18T13:16:45;1.50;;;0.90;;
36593;SDS011;22603;47.900;8.146;2023-02-18T13:19:38;0.93;;;0.60;;
36593;SDS011;22603;47.900;8.146;2023-02-18T13:22:30;1.27;;;0.70;;
36593;SDS011;22603;47.900;8.146;2023-02-18T13:25:18;1.63;;;0.80;;
36593;SDS011;22603;47.900;8.146;2023-02-18T13:28:11;2.03;;;0.80;;
36593;SDS011;22603;47.900;8.146;2023-02-18T13:31:13;1.60;;;0.87;;
36593;SDS011;22603;47.900;8.146;2023-02-18T13:34:10;1.60;;;0.67;;
36593;SDS011;22603;47.900;8.146;2023-02-18T13:37:06;1.70;;;0.87;;
36593;SDS011;22603;47.900;8.146;2023-02-18T13:40:01;1.60;;;0.90;;
36593;SDS011;22603;47.900;8.146;2023-02-18T13:42:49;2.77;;;0.80;;
36593;SDS011;22603;47.900;8.146;2023-02-18T13:45:40;2.10;;;0.83;;
36593;SDS011;22603;47.900;8.146;2023-02-18T13:48:28;1.23;;;0.70;;
36593;SDS011;22603;47.900;8.146;2023-02-18T13:51:17;3.83;;;1.03;;
36593;SDS011;22603;47.900;8.146;2023-02-18T13:54:16;2.47;;;0.93;;
36593;SDS011;22603;47.900;8.146;2023-02-18T13:57:12;1.60;;;0.90;;
36593;SDS011;22603;47.900;8.146;2023-02-18T14:00:02;3.10;;;1.20;;
36593;SDS011;22603;47.900;8.146;2023-02-18T14:02:55;2.33;;;0.97;;
36593;SDS011;22603;47.900;8.146;2023-02-18T14:05:44;3.63;;;1.10;;
36593;SDS011;22603;47.900;8.146;2023-02-18T14:08:32;2.27;;;1.00;;
36593;SDS011;22603;47.900;8.146;2023-02-18T14:14:38;1.97;;;0.90;;
36593;SDS011;22603;47.900;8.146;2023-02-18T14:17:29;3.00;;;1.20;;
36593;SDS011;22603;47.900;8.146;2023-02-18T14:23:37;2.73;;;1.13;;
36593;SDS011;22603;47.900;8.146;2023-02-18T14:26:30;3.67;;;1.10;;
36593;SDS011;22603;47.900;8.146;2023-02-18T14:29:23;3.03;;;1.17;;
36593;SDS011;22603;47.900;8.146;2023-02-18T14:32:15;3.77;;;1.30;;
36593;SDS011;22603;47.900;8.146;2023-02-18T14:35:12;5.17;;;1.40;;
36593;SDS011;22603;47.900;8.146;2023-02-18T14:38:16;4.80;;;1.00;;
36593;SDS011;22603;47.900;8.146;2023-02-18T14:41:34;2.30;;;0.97;;
36593;SDS011;22603;47.900;8.146;2023-02-18T14:44:35;1.50;;;0.87;;
36593;SDS011;22603;47.900;8.146;2023-02-18T14:47:36;2.63;;;1.30;;
36593;SDS011;22603;47.900;8.146;2023-02-18T14:50:37;1.43;;;0.90;;
36593;SDS011;22603;47.900;8.146;2023-02-18T14:53:28;3.87;;;1.17;;
36593;SDS011;22603;47.900;8.146;2023-02-18T14:56:16;9.50;;;1.43;;
36593;SDS011;22603;47.900;8.146;2023-02-18T14:59:06;3.63;;;1.40;;
36593;SDS011;22603;47.900;8.146;2023-02-18T15:01:54;2.93;;;1.27;;
36593;SDS011;22603;47.900;8.146;2023-02-18T15:04:41;3.00;;;1.30;;
36593;SDS011;22603;47.900;8.146;2023-02-18T15:07:30;5.77;;;1.20;;
36593;SDS011;22603;47.900;8.146;2023-02-18T15:10:19;4.90;;;1.57;;
36593;SDS011;22603;47.900;8.146;2023-02-18T15:13:08;2.27;;;1.20;;
36593;SDS011;22603;47.900;8.146;2023-02-18T15:16:00;2.80;;;1.10;;
36593;SDS011;22603;47.900;8.146;2023-02-18T15:18:50;1.90;;;0.90;;
36593;SDS011;22603;47.900;8.146;2023-02-18T15:21:41;1.60;;;0.87;;
36593;SDS011;22603;47.900;8.146;2023-02-18T15:24:31;2.20;;;1.17;;
36593;SDS011;22603;47.900;8.146;2023-02-18T15:27:21;1.87;;;0.97;;
36593;SDS011;22603;47.900;8.146;2023-02-18T15:30:18;1.33;;;0.80;;
36593;SDS011;22603;47.900;8.146;2023-02-18T15:33:13;5.43;;;1.10;;
36593;SDS011;22603;47.900;8.146;2023-02-18T15:36:16;1.77;;;0.70;;
36593;SDS011;22603;47.900;8.146;2023-02-18T15:39:03;2.67;;;1.07;;
36593;SDS011;22603;47.900;8.146;2023-02-18T15:41:51;1.70;;;0.80;;
36593;SDS011;22603;47.900;8.146;2023-02-18T15:44:44;1.63;;;0.90;;
36593;SDS011;22603;47.900;8.146;2023-02-18T15:47:33;2.20;;;1.00;;
36593;SDS011;22603;47.900;8.146;2023-02-18T15:50:20;2.53;;;1.10;;
36593;SDS011;22603;47.900;8.146;2023-02-18T15:53:13;2.17;;;1.00;;
36593;SDS011;22603;47.900;8.146;2023-02-18T15:56:04;2.60;;;0.83;;
36593;SDS011;22603;47.900;8.146;2023-02-18T15:58:55;2.00;;;1.10;;
36593;SDS011;22603;47.900;8.146;2023-02-18T16:01:55;3.83;;;1.30;;
36593;SDS011;22603;47.900;8.146;2023-02-18T16:04:57;1.70;;;0.93;;
36593;SDS011;22603;47.900;8.146;2023-02-18T16:07:50;2.33;;;1.13;;
36593;SDS011;22603;47.900;8.146;2023-02-18T16:10:43;1.73;;;0.97;;
36593;SDS011;22603;47.900;8.146;2023-02-18T16:13:32;1.40;;;0.80;;
36593;SDS011;22603;47.900;8.146;2023-02-18T16:16:22;2.30;;;1.10;;
36593;SDS011;22603;47.900;8.146;2023-02-18T16:19:22;1.87;;;0.80;;
36593;SDS011;22603;47.900;8.146;2023-02-18T16:22:17;2.03;;;0.83;;
36593;SDS011;22603;47.900;8.146;2023-02-18T16:25:14;2.10;;;0.90;;
36593;SDS011;22603;47.900;8.146;2023-02-18T16:28:06;4.10;;;1.37;;
36593;SDS011;22603;47.900;8.146;2023-02-18T16:30:57;2.40;;;1.20;;
36593;SDS011;22603;47.900;8.146;2023-02-18T16:33:44;2.13;;;1.00;;
36593;SDS011;22603;47.900;8.146;2023-02-18T16:36:33;2.33;;;1.00;;
36593;SDS011;22603;47.900;8.146;2023-02-18T16:39:20;1.30;;;0.90;;
36593;SDS011;22603;47.900;8.146;2023-02-18T16:42:07;2.30;;;1.00;;
36593;SDS011;22603;47.900;8.146;2023-02-18T16:44:56;3.73;;;1.37;;
36593;SDS011;22603;47.900;8.146;2023-02-18T16:47:43;2.50;;;1.03;;
36593;SDS011;22603;47.900;8.146;2023-02-18T16:50:31;3.13;;;0.97;;
36593;SDS011;22603;47.900;8.146;2023-02-18T16:53:20;3.27;;;0.93;;
36593;SDS011;22603;47.900;8.146;2023-02-18T16:56:11;2.60;;;1.13;;
36593;SDS011;22603;47.900;8.146;2023-02-18T16:59:00;1.93;;;1.00;;
36593;SDS011;22603;47.900;8.146;2023-02-18T17:01:47;2.70;;;1.10;;
36593;SDS011;22603;47.900;8.146;2023-02-18T17:04:34;1.40;;;1.00;;
36593;SDS011;22603;47.900;8.146;2023-02-18T17:07:21;3.30;;;0.93;;
36593;SDS011;22603;47.900;8.146;2023-02-18T17:10:10;3.23;;;1.20;;
36593;SDS011;22603;47.900;8.146;2023-02-18T17:12:58;2.03;;;1.00;;
36593;SDS011;22603;47.900;8.146;2023-02-18T17:15:46;4.33;;;1.50;;
36593;SDS011;22603;47.900;8.146;2023-02-18T17:18:34;4.70;;;1.50;;
36593;SDS011;22603;47.900;8.146;2023-02-18T17:21:22;2.83;;;1.20;;
36593;SDS011;22603;47.900;8.146;2023-02-18T17:24:11;4.17;;;1.23;;
36593;SDS011;22603;47.900;8.146;2023-02-18T17:26:59;3.27;;;1.30;;